HLY weather

Parque Toreo III Heliport
Naucalpan, Mexico, Mexico

Public forecast

Using degrees Celsius for public forecast. Weather courtesy of forecast.io.

METAR (pilot weather report)

Closest report is Licenciado Benito Juarez International Airport, 8.3 nm (15.5 km) E. Retrieved 2019/06/16 01:44 UTC (11 minutes ago):

MMMX 160144Z 09015KT 7SM TS BKN020CB BKN080 OVC200 22/12 A3024 NOSIG RMK 8/963 HZY BINOVC OCNL DROPS FRQ LTGICCG N NE

TAF (pilot weather forecast)

Forecast is more than 12 hours old.

Closest forecast is Licenciado Benito Juarez International Airport, 8.3 nm (15.5 km) E. Retrieved 2019/06/15 00:08 UTC (1 day ago):

TAF MMMX 152304Z 1600/1706 02010KT 6SM HZ SCT020 BKN200 TX26/1621Z TN15/1612Z TEMPO 1600/1604 6SM TSRA BKN020CB FM160600 03005KT 6SM HZ SCT020 SCT080 BKN200 FM161800 03010KT P6SM SCT025 BKN200 TEMPO 1623/1703 5SM TSRA BKN020CB